createdAt,value
2022-09-21T00:04:09.532Z,4.30
2022-09-21T00:09:30.091Z,3.97
2022-09-21T00:14:50.613Z,4.75
2022-09-21T00:20:11.294Z,4.03
2022-09-21T00:25:31.776Z,3.63
2022-09-21T00:30:52.573Z,4.30
2022-09-21T00:36:17.211Z,5.63
2022-09-21T00:41:37.878Z,5.68
2022-09-21T00:47:08.772Z,4.80
2022-09-21T00:52:33.914Z,3.90
2022-09-21T00:57:59.894Z,4.32
2022-09-21T01:03:20.455Z,5.45
2022-09-21T01:08:42.109Z,5.03
2022-09-21T01:14:28.816Z,3.78
2022-09-21T01:20:20.425Z,7.43
2022-09-21T01:26:01.407Z,4.38
2022-09-21T01:31:27.342Z,4.97
2022-09-21T01:36:49.991Z,3.15
2022-09-21T01:42:13.567Z,2.95
2022-09-21T01:47:39.709Z,3.10
2022-09-21T01:53:10.412Z,3.50
2022-09-21T01:58:54.699Z,3.08
2022-09-21T02:04:15.530Z,2.15
2022-09-21T02:09:37.771Z,2.30
2022-09-21T02:14:58.797Z,3.38
2022-09-21T02:20:36.587Z,5.03
2022-09-21T02:26:14.728Z,2.60
2022-09-21T02:31:54.154Z,3.13
2022-09-21T02:37:21.034Z,4.18
2022-09-21T02:42:45.253Z,3.00
2022-09-21T02:48:14.252Z,2.53
2022-09-21T02:53:37.851Z,5.20
2022-09-21T02:59:03.197Z,3.58
2022-09-21T03:04:24.378Z,2.33
2022-09-21T03:09:45.402Z,5.20
2022-09-21T03:15:06.456Z,3.70
2022-09-21T03:20:27.034Z,3.03
2022-09-21T03:25:48.261Z,2.97
2022-09-21T03:31:09.450Z,2.65
2022-09-21T03:36:30.082Z,3.13
2022-09-21T03:41:50.703Z,4.13
2022-09-21T03:47:11.647Z,2.80
2022-09-21T03:52:32.436Z,2.97
2022-09-21T03:57:53.479Z,3.50
2022-09-21T04:03:14.355Z,4.40
2022-09-21T04:08:35.324Z,3.58
2022-09-21T04:13:59.218Z,3.58
2022-09-21T04:19:20.368Z,2.60
2022-09-21T04:24:41.520Z,3.33
2022-09-21T04:30:02.377Z,8.75
2022-09-21T04:35:23.047Z,5.85
2022-09-21T04:40:43.559Z,5.28
2022-09-21T04:46:16.229Z,2.95
2022-09-21T04:51:37.409Z,3.70
2022-09-21T04:56:58.281Z,4.43
2022-09-21T05:02:18.782Z,5.40
2022-09-21T05:07:39.478Z,7.22
2022-09-21T05:13:00.133Z,2.50
2022-09-21T05:18:20.930Z,3.92
2022-09-21T05:23:41.818Z,2.47
2022-09-21T05:29:02.975Z,3.00
2022-09-21T05:34:53.523Z,4.20
2022-09-21T05:40:14.853Z,2.47
2022-09-21T05:45:41.969Z,3.95
2022-09-21T05:51:18.942Z,3.85
2022-09-21T05:57:02.650Z,2.97
2022-09-21T06:02:35.470Z,4.18
2022-09-21T06:07:56.325Z,4.82
2022-09-21T06:13:17.227Z,4.00
2022-09-21T06:18:42.382Z,3.90
2022-09-21T06:24:03.520Z,4.05
2022-09-21T06:29:24.293Z,5.38
2022-09-21T06:34:44.860Z,15.10
2022-09-21T06:40:06.646Z,5.95
2022-09-21T06:45:28.632Z,4.45
2022-09-21T06:50:49.840Z,2.40
2022-09-21T06:56:11.340Z,4.05
2022-09-21T07:01:32.025Z,4.70
2022-09-21T07:06:52.585Z,4.35
2022-09-21T07:12:13.823Z,3.22
2022-09-21T07:17:36.450Z,5.25
2022-09-21T07:22:57.725Z,3.83
2022-09-21T07:28:19.766Z,3.90
2022-09-21T07:33:41.624Z,2.78
2022-09-21T07:39:03.174Z,6.55
2022-09-21T07:44:24.049Z,4.38
2022-09-21T07:49:45.824Z,3.38
2022-09-21T07:55:07.110Z,3.63
2022-09-21T08:00:33.048Z,3.33
2022-09-21T08:05:53.626Z,2.80
2022-09-21T08:11:16.189Z,4.78
2022-09-21T08:16:38.521Z,5.57
2022-09-21T08:21:59.237Z,2.13
2022-09-21T08:27:20.487Z,5.85
2022-09-21T08:32:50.945Z,3.60
2022-09-21T08:38:12.561Z,3.25
2022-09-21T08:43:41.844Z,2.45
2022-09-21T08:49:10.233Z,3.10
2022-09-21T08:54:37.061Z,5.28
2022-09-21T09:00:00.213Z,4.47
2022-09-21T09:05:41.986Z,5.80
2022-09-21T09:11:24.368Z,2.45
2022-09-21T09:17:06.372Z,5.15
2022-09-21T09:22:53.911Z,4.65
2022-09-21T09:28:33.488Z,3.15
2022-09-21T09:34:00.313Z,4.83
2022-09-21T09:39:21.183Z,3.92
2022-09-21T09:45:03.184Z,4.68
2022-09-21T09:50:33.368Z,3.03
2022-09-21T09:55:56.343Z,5.38
2022-09-21T10:01:38.020Z,2.72
2022-09-21T10:06:58.549Z,1.13
2022-09-21T10:12:25.090Z,4.28
2022-09-21T10:17:48.006Z,3.53
2022-09-21T10:23:13.112Z,1.17
2022-09-21T10:28:34.227Z,1.77
2022-09-21T10:34:14.392Z,1.48
2022-09-21T10:39:35.137Z,1.40
2022-09-21T10:45:17.615Z,1.23
2022-09-21T10:50:50.564Z,7.22
2022-09-21T10:56:17.458Z,10.27
2022-09-21T11:01:45.723Z,24.08
2022-09-21T11:07:25.155Z,1.88
2022-09-21T11:13:10.101Z,3.15
2022-09-21T11:18:39.075Z,3.65
2022-09-21T11:24:18.671Z,8.68
2022-09-21T11:30:07.528Z,5.37
2022-09-21T11:35:40.897Z,20.42
2022-09-21T11:41:23.281Z,9.20
2022-09-21T11:47:05.712Z,3.30
2022-09-21T11:52:47.751Z,1.70
2022-09-21T11:58:28.621Z,1.50
2022-09-21T12:04:16.545Z,1.20
2022-09-21T12:09:56.920Z,0.80
2022-09-21T12:15:33.799Z,4.18
2022-09-21T12:20:57.235Z,2.50
2022-09-21T12:26:23.229Z,2.20
2022-09-21T12:31:56.235Z,1.38
2022-09-21T12:37:40.519Z,2.22
2022-09-21T12:43:07.691Z,1.20
2022-09-21T12:48:38.959Z,1.70
2022-09-21T12:54:08.335Z,1.52
2022-09-21T12:59:32.340Z,1.25
2022-09-21T13:05:17.896Z,2.05
2022-09-21T13:10:43.838Z,1.92
2022-09-21T13:16:07.868Z,1.35
2022-09-21T13:21:31.296Z,1.25
2022-09-21T13:27:08.128Z,3.08
2022-09-21T13:32:52.231Z,1.00
2022-09-21T13:38:23.389Z,1.50
2022-09-21T13:44:06.178Z,3.15
2022-09-21T13:49:32.060Z,1.75
2022-09-21T13:55:01.890Z,3.42
2022-09-21T14:00:22.377Z,1.38
2022-09-21T14:05:47.812Z,1.48
2022-09-21T14:11:15.623Z,1.77
2022-09-21T14:16:41.822Z,2.20
2022-09-21T14:22:06.254Z,1.10
2022-09-21T14:27:48.264Z,1.50
2022-09-21T14:33:26.233Z,2.97
2022-09-21T14:38:55.366Z,1.98
2022-09-21T14:44:29.632Z,2.13
2022-09-21T14:50:08.114Z,1.60
2022-09-21T14:55:52.242Z,2.15
2022-09-21T15:01:40.821Z,2.00
2022-09-21T15:07:35.357Z,1.95
2022-09-21T15:13:05.267Z,1.10
2022-09-21T15:18:26.227Z,1.95
2022-09-21T15:23:47.156Z,1.50
2022-09-21T15:29:10.279Z,0.68
2022-09-21T15:34:32.151Z,0.90
2022-09-21T15:40:05.130Z,1.00
2022-09-21T15:51:33.805Z,0.65
2022-09-21T15:56:55.745Z,0.77
2022-09-21T16:02:22.263Z,2.58
2022-09-21T16:07:46.062Z,4.43
2022-09-21T16:13:42.864Z,0.80
2022-09-21T16:19:04.671Z,0.98
2022-09-21T16:24:27.181Z,1.15
2022-09-21T16:29:50.311Z,1.92
2022-09-21T16:35:29.465Z,2.22
2022-09-21T16:40:54.074Z,1.60
2022-09-21T16:46:15.102Z,15.80
2022-09-21T16:51:36.332Z,1.63
2022-09-21T16:57:00.080Z,1.30
2022-09-21T17:02:21.050Z,1.73
2022-09-21T17:08:04.700Z,2.45
2022-09-21T17:13:28.266Z,1.13
2022-09-21T17:18:49.901Z,0.85
2022-09-21T17:24:13.939Z,2.30
2022-09-21T17:29:49.439Z,2.58
2022-09-21T17:35:14.573Z,0.77
2022-09-21T17:40:36.504Z,4.80
2022-09-21T17:46:05.177Z,2.15
2022-09-21T17:51:45.061Z,3.47
2022-09-21T17:57:33.545Z,6.15
2022-09-21T18:02:55.083Z,1.30
2022-09-21T18:08:15.943Z,5.82
2022-09-21T18:14:05.707Z,14.40
2022-09-21T18:19:42.571Z,9.73
2022-09-21T18:25:14.578Z,1.63
2022-09-21T18:30:41.174Z,2.25
2022-09-21T18:36:25.414Z,2.08
2022-09-21T18:42:01.438Z,1.98
2022-09-21T18:47:40.603Z,7.20
2022-09-21T18:53:13.114Z,11.80
2022-09-21T18:58:34.796Z,1.70
2022-09-21T19:03:55.894Z,1.38
2022-09-21T19:09:30.404Z,2.58
2022-09-21T19:15:12.445Z,12.90
2022-09-21T19:20:49.906Z,5.28
2022-09-21T19:26:21.647Z,3.42
2022-09-21T19:31:44.473Z,4.03
2022-09-21T19:37:07.914Z,9.30
2022-09-21T19:42:44.177Z,16.30
2022-09-21T19:48:13.545Z,25.73
2022-09-21T19:53:52.947Z,19.63
2022-09-21T19:59:34.855Z,9.63
2022-09-21T20:04:58.422Z,8.95
2022-09-21T20:10:27.164Z,10.80
2022-09-21T20:16:03.800Z,8.68
2022-09-21T20:21:37.820Z,13.27
2022-09-21T20:26:59.096Z,40.40
2022-09-21T20:32:22.411Z,84.30
2022-09-21T20:37:44.357Z,40.58
2022-09-21T20:43:05.327Z,11.70
2022-09-21T20:48:30.114Z,7.25
2022-09-21T20:53:53.223Z,4.60
2022-09-21T20:59:14.527Z,10.27
2022-09-21T21:04:37.051Z,7.95
2022-09-21T21:09:58.983Z,6.20
2022-09-21T21:15:20.568Z,5.18
2022-09-21T21:20:41.305Z,3.60
2022-09-21T21:26:05.137Z,3.92
2022-09-21T21:31:25.876Z,2.67
2022-09-21T21:36:46.564Z,2.70
2022-09-21T21:42:07.426Z,2.13
2022-09-21T21:47:39.288Z,3.85
2022-09-21T21:53:01.464Z,3.42
2022-09-21T21:58:22.523Z,3.90
2022-09-21T22:03:43.365Z,2.55
2022-09-21T22:09:06.565Z,3.45
2022-09-21T22:14:28.354Z,2.55
2022-09-21T22:19:49.704Z,4.20
2022-09-21T22:25:11.037Z,2.83
2022-09-21T22:30:32.255Z,3.25
2022-09-21T22:35:52.847Z,4.00
2022-09-21T22:41:19.777Z,4.55
2022-09-21T22:46:42.051Z,5.95
2022-09-21T22:52:02.791Z,4.90
2022-09-21T22:57:23.794Z,2.97
2022-09-21T23:02:44.939Z,3.90
2022-09-21T23:08:05.884Z,2.67
2022-09-21T23:13:26.602Z,5.30
2022-09-21T23:18:49.132Z,4.35
2022-09-21T23:24:10.198Z,2.58
2022-09-21T23:29:31.361Z,3.00
2022-09-21T23:34:52.624Z,5.45
2022-09-21T23:40:13.568Z,5.40
2022-09-21T23:45:35.164Z,2.65
2022-09-21T23:50:56.805Z,3.08
2022-09-21T23:56:23.769Z,2.85
